CheckWX is a tool to help pilots better visualize weather data.  It is not intended as a substitute for an official pre-flight weather briefing.

11:27:54 UTC

KTIF METAR
Thomas County Airport
Thedford, Nebraska, USA
Current

33 mins ago

KTIF 041055Z AUTO 17006KT 10SM CLR M06/M07 A3014 RMK AO2 T10571068
Observed
Apr-4 @ 10:55 UTC
Wind
  • 170° at 6 KTS
Visibility
Flight Rules
VFR
Cloud Levels
  • Clear skies
Temperature
-6°C / 21°F
Dewpoint
-7°C / 19°F
Humidity
93%
Altimeter
30.14" Hg
Pressure
1020.62 hPa
Previous

53 mins ago

KTIF 041035Z AUTO 19006KT 10SM CLR M06/M07 A3015 RMK AO2 T10561067
Observed
Apr-4 @ 10:35 UTC
Wind
  • 190° at 6 KTS
Visibility
Flight Rules
VFR
Cloud Levels
  • Clear skies
Temperature
-6°C / 21°F
Dewpoint
-7°C / 19°F
Humidity
93%
Altimeter
30.15" Hg
Pressure
1021.02 hPa
Previous

1 hour ago

KTIF 041015Z AUTO 20006KT 10SM CLR M05/M06 A3016 RMK AO2 T10511063
Observed
Apr-4 @ 10:15 UTC
Wind
  • 200° at 6 KTS
Visibility
Flight Rules
VFR
Cloud Levels
  • Clear skies
Temperature
-5°C / 23°F
Dewpoint
-6°C / 21°F
Humidity
93%
Altimeter
30.16" Hg
Pressure
1021.32 hPa